Omvac Ocho — EAZS — position and weather

sailwx.info

Track history (hours):
 
Tides and Currents Weather Stations Pressure Air Temp Water Temp Dewpoint Dewpoint Depression Visibility Wind Speed Wind Dir Waves Ship Positions

Omvac Ocho

Last reported at 2017-Nov-20 00:09 UTC. Time now 2017-Nov-23 18:17 UTC.
Position N 39°27' W 009°44'.

Length 52 m; draft 2.5 m.

Type: Dredging. MMSI: 225386000.

Date/timePositionNaut miles runAvg speedWind from/ knotsBaromVisibWave heightAir tempDewpointWater temp
2017-Nov-20 00:09N 39°27' W 009°44'1 8.0
2017-Nov-20 00:00N 39°25' W 009°44'6 7.9
2017-Nov-19 23:10N 39°19' W 009°44'1 7.8
2017-Nov-19 22:59N 39°18' W 009°45'4 7.6
2017-Nov-19 22:30N 39°14' W 009°46'4 7.7
2017-Nov-19 22:00N 39°10' W 009°47'4 7.7
2017-Nov-19 21:30N 39°06' W 009°48'4 7.6
2017-Nov-19 21:00N 39°03' W 009°48'4 7.7
2017-Nov-19 20:30N 38°59' W 009°49'4 7.5
2017-Nov-19 20:00N 38°55' W 009°49'4 7.3
2017-Nov-19 19:30N 38°51' W 009°50'4 7.3
2017-Nov-19 19:00N 38°48' W 009°50'4 7.1
2017-Nov-19 18:30N 38°44' W 009°50'4 7.7
2017-Nov-19 18:00N 38°40' W 009°49'4 7.7
2017-Nov-19 17:30N 38°37' W 009°48'4 7.4
2017-Nov-19 17:00N 38°33' W 009°47'4 7.6
2017-Nov-19 16:30N 38°29' W 009°47'4 7.5
2017-Nov-19 16:00N 38°26' W 009°46'4 7.6
2017-Nov-19 15:30N 38°22' W 009°45'4 7.2
2017-Nov-19 14:59N 38°18' W 009°44'4 7.5
2017-Nov-19 14:29N 38°15' W 009°42'4 7.9
2017-Nov-19 14:00N 38°11' W 009°41'4 7.9
2017-Nov-19 13:30N 38°07' W 009°40'4 7.8
2017-Nov-19 13:00N 38°03' W 009°38'4 7.7
2017-Nov-19 12:30N 37°60' W 009°37'4 7.9
2017-Nov-19 12:00N 37°56' W 009°36'4 8.1
2017-Nov-19 11:30N 37°52' W 009°35'4 8.1
2017-Nov-19 11:00N 37°48' W 009°33'4 7.8
2017-Nov-19 10:30N 37°44' W 009°32'4 7.9
2017-Nov-19 10:00N 37°40' W 009°31'4 7.6
2017-Nov-19 09:30N 37°37' W 009°30'4 7.7
2017-Nov-19 08:58N 37°33' W 009°29'4 7.9
2017-Nov-19 08:30N 37°29' W 009°28'4 7.8
2017-Nov-19 07:58N 37°25' W 009°27'4 7.9
2017-Nov-19 07:30N 37°21' W 009°26'4 7.6
2017-Nov-19 07:00N 37°18' W 009°25'4 7.5
2017-Nov-19 06:30N 37°14' W 009°24'4 7.6
2017-Nov-19 06:00N 37°10' W 009°23'4 7.5
2017-Nov-19 05:30N 37°07' W 009°22'4 7.8
2017-Nov-19 05:00N 37°03' W 009°21'4 7.8
2017-Nov-19 04:26N 36°58' W 009°19'3 8.0
2017-Nov-19 04:00N 36°55' W 009°18'9 7.9
2017-Nov-19 02:48N 36°48' W 009°11'3 8.2
2017-Nov-19 02:23N 36°46' W 009°08'3 8.2
2017-Nov-19 02:00N 36°45' W 009°04'10 8.2
2017-Nov-19 00:48N 36°42' W 008°52'5 8.1
2017-Nov-19 00:11N 36°40' W 008°46'10 7.8
2017-Nov-18 22:56N 36°37' W 008°35'33 8.0
2017-Nov-18 18:46N 36°27' W 007°55'3 7.7
2017-Nov-18 18:24N 36°26' W 007°52'119 7.2
2017-Nov-18 01:45N 36°00' W 005°27'2 6.5
2017-Nov-18 01:25N 36°01' W 005°25'3 6.6
2017-Nov-18 01:00N 36°01' W 005°21'3 6.8
2017-Nov-18 00:30N 36°02' W 005°17'232 7.5
2017-Nov-16 17:28N 37°19' W 000°44'190 7.4
2017-Nov-15 15:51N 39°18' E 002°25'3 8.0
2017-Nov-15 15:30N 39°20' E 002°28'4 7.8
2017-Nov-15 14:59N 39°23' E 002°31'4 7.5
2017-Nov-15 14:30N 39°26' E 002°34'4 7.4
2017-Nov-15 14:00N 39°29' E 002°37'4 7.5
2017-Nov-15 13:30N 39°32' E 002°39'1 2.3
2017-Nov-15 13:00N 39°33' E 002°38'0 0.0
2017-Nov-15 12:30N 39°33' E 002°38'0 0.0
2017-Nov-15 12:00N 39°33' E 002°38'0 0.0
2017-Nov-15 11:30N 39°33' E 002°38'0 0.0
2017-Nov-15 11:00N 39°33' E 002°38'0 0.0
2017-Nov-15 10:30N 39°33' E 002°38'0 0.0
2017-Nov-15 10:00N 39°33' E 002°38'0 0.0
2017-Nov-15 09:30N 39°33' E 002°38'0 0.0
2017-Nov-15 09:00N 39°33' E 002°38'0 0.0
2017-Nov-15 08:30N 39°33' E 002°38'0 0.0
2017-Nov-15 08:00N 39°33' E 002°38'0 0.0
2017-Nov-15 07:30N 39°33' E 002°38'0 0.0
2017-Nov-15 07:00N 39°33' E 002°38'0 0.0
2017-Nov-15 06:30N 39°33' E 002°38'0 0.0
2017-Nov-15 06:00N 39°33' E 002°38'0 0.0
2017-Nov-15 05:30N 39°33' E 002°38'0 0.0
2017-Nov-15 05:00N 39°33' E 002°38'0 0.0
2017-Nov-15 04:30N 39°33' E 002°38'0 0.0
2017-Nov-15 04:00N 39°33' E 002°38'0 0.0
2017-Nov-15 03:30N 39°33' E 002°38'0 0.0
2017-Nov-15 03:00N 39°33' E 002°38'0 0.0
2017-Nov-15 02:30N 39°33' E 002°38'0 0.0
2017-Nov-15 02:00N 39°33' E 002°38'0 0.0
2017-Nov-15 01:30N 39°33' E 002°38'0 0.0
2017-Nov-15 01:00N 39°33' E 002°38'0 0.0
2017-Nov-15 00:30N 39°33' E 002°38'0 0.0
2017-Nov-15 00:00N 39°33' E 002°38'0 0.0
2017-Nov-14 23:30N 39°33' E 002°38'0 0.0
2017-Nov-14 23:00N 39°33' E 002°38'0 0.0
2017-Nov-14 22:30N 39°33' E 002°38'0 0.0
2017-Nov-14 22:00N 39°33' E 002°38'0 0.0
2017-Nov-14 21:30N 39°33' E 002°38'0 0.0
2017-Nov-14 21:00N 39°33' E 002°38'0 0.0
2017-Nov-14 20:30N 39°33' E 002°38'0 0.0
2017-Nov-14 20:00N 39°33' E 002°38'0 0.0
2017-Nov-14 19:30N 39°33' E 002°38'0 0.0
2017-Nov-14 19:00N 39°33' E 002°38'0 0.0
2017-Nov-14 18:30N 39°33' E 002°38'0 0.0
2017-Nov-14 18:00N 39°33' E 002°38'0 0.0
2017-Nov-14 17:30N 39°33' E 002°38'0 0.0
2017-Nov-14 17:00N 39°33' E 002°38'0 0.0
2017-Nov-14 16:30N 39°33' E 002°38'0 0.0
2017-Nov-14 16:00N 39°33' E 002°38'0 0.0
2017-Nov-14 15:30N 39°33' E 002°38'0 0.0
2017-Nov-14 15:00N 39°33' E 002°38'0 0.0
2017-Nov-14 14:30N 39°33' E 002°38'0 0.0
2017-Nov-14 14:00N 39°33' E 002°38'0 0.0
2017-Nov-14 13:30N 39°33' E 002°38'0 0.0
2017-Nov-14 13:00N 39°33' E 002°38'0 0.0
2017-Nov-14 12:30N 39°33' E 002°38'0 0.0
2017-Nov-14 12:00N 39°33' E 002°38'0 0.0
2017-Nov-14 11:30N 39°33' E 002°38'0 0.0
2017-Nov-14 11:00N 39°33' E 002°38'0 0.0
2017-Nov-14 10:30N 39°33' E 002°38'0 0.0
2017-Nov-14 10:00N 39°33' E 002°38'0 0.0
2017-Nov-14 09:30N 39°33' E 002°38'0 0.0
2017-Nov-14 09:00N 39°33' E 002°38'0 0.0
2017-Nov-14 08:30N 39°33' E 002°38'0 0.0
2017-Nov-14 08:00N 39°33' E 002°38'0 0.0
2017-Nov-14 07:30N 39°33' E 002°38'0 0.0
2017-Nov-14 07:00N 39°33' E 002°38'0 0.0
2017-Nov-14 06:30N 39°33' E 002°38'0 0.0
2017-Nov-14 06:00N 39°33' E 002°38'0 0.0
2017-Nov-14 05:30N 39°33' E 002°38'0 0.0
2017-Nov-14 05:00N 39°33' E 002°38'0 0.0
2017-Nov-14 04:30N 39°33' E 002°38'0 0.0
2017-Nov-14 04:00N 39°33' E 002°38'0 0.0
2017-Nov-14 03:30N 39°33' E 002°38'0 0.0
2017-Nov-14 03:00N 39°33' E 002°38'0 0.0
2017-Nov-14 02:30N 39°33' E 002°38'0 0.0
2017-Nov-14 02:00N 39°33' E 002°38'0 0.0
2017-Nov-14 01:30N 39°33' E 002°38'0 0.0
2017-Nov-14 01:00N 39°33' E 002°38'0 0.0
2017-Nov-14 00:30N 39°33' E 002°38'0 0.0
2017-Nov-14 00:00N 39°33' E 002°38'0 0.0
2017-Nov-13 23:30N 39°33' E 002°38'0 0.0
2017-Nov-13 23:00N 39°33' E 002°38'0 0.0
2017-Nov-13 22:30N 39°33' E 002°38'0 0.0
2017-Nov-13 22:00N 39°33' E 002°38'0 0.0
2017-Nov-13 02:00N 39°33' E 002°38'0 0.0
2017-Nov-13 01:30N 39°33' E 002°38'0 0.0
2017-Nov-13 01:00N 39°33' E 002°38'0 0.0
2017-Nov-13 00:30N 39°33' E 002°38'0 0.0
2017-Nov-13 00:00N 39°33' E 002°38'0 0.0
2017-Nov-12 23:23N 39°33' E 002°38'0 0.0
2017-Nov-12 23:00N 39°33' E 002°38'0 0.0
2017-Nov-12 22:30N 39°33' E 002°38'0 0.0
2017-Nov-12 22:00N 39°33' E 002°38'0 0.0
2017-Nov-12 21:30N 39°33' E 002°38'0 0.0
2017-Nov-12 21:00N 39°33' E 002°38'0 0.0
2017-Nov-12 20:30N 39°33' E 002°38'0 0.0
2017-Nov-12 20:00N 39°33' E 002°38'0 0.0
2017-Nov-12 19:30N 39°33' E 002°38'0 0.0
2017-Nov-12 19:00N 39°33' E 002°38'0 0.0
2017-Nov-12 18:30N 39°33' E 002°38'0 0.0
2017-Nov-12 18:00N 39°33' E 002°38'0 0.0
2017-Nov-12 17:30N 39°33' E 002°38'0 0.0
2017-Nov-12 17:00N 39°33' E 002°38'0 0.0
2017-Nov-12 16:30N 39°33' E 002°38'0 0.0
2017-Nov-12 16:00N 39°33' E 002°38'0 0.0
2017-Nov-12 15:30N 39°33' E 002°38'0 0.0
2017-Nov-12 15:00N 39°33' E 002°38'0 0.0
2017-Nov-12 14:30N 39°33' E 002°38'0 0.0
2017-Nov-12 14:00N 39°33' E 002°38'0 0.0
2017-Nov-12 13:30N 39°33' E 002°38'0 0.0
2017-Nov-12 13:00N 39°33' E 002°38'0 0.0
2017-Nov-12 12:30N 39°33' E 002°38'0 0.1
2017-Nov-12 12:00N 39°33' E 002°38'0 0.3
2017-Nov-12 11:30N 39°33' E 002°38'0 0.2
2017-Nov-12 11:00N 39°33' E 002°38'0 0.3
2017-Nov-12 10:30N 39°33' E 002°38'0 0.0
2017-Nov-12 10:00N 39°33' E 002°38'0 0.0
2017-Nov-12 09:30N 39°33' E 002°38'0 0.0
2017-Nov-12 09:00N 39°33' E 002°38'0 0.0
2017-Nov-12 08:30N 39°33' E 002°38'0 0.0
2017-Nov-12 08:00N 39°33' E 002°38'0 0.0
2017-Nov-12 07:30N 39°33' E 002°38'0 0.0
2017-Nov-12 07:00N 39°33' E 002°38'0 0.0
2017-Nov-12 06:30N 39°33' E 002°38'0 0.0
2017-Nov-12 06:00N 39°33' E 002°38'0 0.0
2017-Nov-12 05:30N 39°33' E 002°38'0 0.0
2017-Nov-12 05:00N 39°33' E 002°38'0 0.0
2017-Nov-12 04:30N 39°33' E 002°38'0 0.0
2017-Nov-12 04:00N 39°33' E 002°38'0 0.0
2017-Nov-12 03:30N 39°33' E 002°38'0 0.0
2017-Nov-12 03:00N 39°33' E 002°38'0 0.0
2017-Nov-12 02:30N 39°33' E 002°38'0 0.0
2017-Nov-12 02:00N 39°33' E 002°38'0 0.0
2017-Nov-12 01:30N 39°33' E 002°38'0 0.0
2017-Nov-12 01:00N 39°33' E 002°38'0 0.0
2017-Nov-12 00:30N 39°33' E 002°38'0 0.0
2017-Nov-12 00:00N 39°33' E 002°38'0 0.0
2017-Nov-11 23:30N 39°33' E 002°38'0 0.0
2017-Nov-11 23:00N 39°33' E 002°38'0 0.0
2017-Nov-11 22:30N 39°33' E 002°38'0 0.0
2017-Nov-11 22:00N 39°33' E 002°38'0 0.0
2017-Nov-11 21:30N 39°33' E 002°38'0 0.0
2017-Nov-11 21:00N 39°33' E 002°38'0 0.0
2017-Nov-11 20:30N 39°33' E 002°38'0 0.0
2017-Nov-11 20:00N 39°33' E 002°38'0 0.0
2017-Nov-11 19:30N 39°33' E 002°38'0 0.0
2017-Nov-11 19:00N 39°33' E 002°38'0 0.0
2017-Nov-11 18:30N 39°33' E 002°38'0 0.0
2017-Nov-11 18:00N 39°33' E 002°38'0 0.1
2017-Nov-11 17:30N 39°33' E 002°38'0 0.0
2017-Nov-11 17:00N 39°33' E 002°38'0 0.0
2017-Nov-11 16:30N 39°33' E 002°38'0 0.0
2017-Nov-11 16:00N 39°33' E 002°38'0 0.1
2017-Nov-11 15:30N 39°33' E 002°38'1 1.2
2017-Nov-11 15:00N 39°33' E 002°38'0 0.0
2017-Nov-11 14:30N 39°33' E 002°38'0 0.9
2017-Nov-11 14:00N 39°33' E 002°38'0 0.0
2017-Nov-11 13:30N 39°33' E 002°38'0 0.9
2017-Nov-11 13:00N 39°33' E 002°38'0 0.0
2017-Nov-11 12:30N 39°33' E 002°38'1 1.4
2017-Nov-11 12:00N 39°33' E 002°38'1 1.4
2017-Nov-11 11:30N 39°33' E 002°38'0 0.0
2017-Nov-11 11:00N 39°33' E 002°38'0 0.0
2017-Nov-11 10:30N 39°33' E 002°38'0 0.9
2017-Nov-11 10:00N 39°33' E 002°38'0 0.6
2017-Nov-11 09:30N 39°33' E 002°38'0 0.3
2017-Nov-11 09:00N 39°33' E 002°38'0 0.0
2017-Nov-11 08:30N 39°33' E 002°38'0 0.9
2017-Nov-11 08:00N 39°33' E 002°38'0 0.9
2017-Nov-11 07:30N 39°33' E 002°38'0 0.0
2017-Nov-11 07:00N 39°33' E 002°38'0 0.0
2017-Nov-11 06:30N 39°33' E 002°38'0 0.0
2017-Nov-11 06:00N 39°33' E 002°38'0 0.0
2017-Nov-11 05:30N 39°33' E 002°38'0 0.0
2017-Nov-11 05:00N 39°33' E 002°38'0 0.0
2017-Nov-11 04:30N 39°33' E 002°38'0 0.0
2017-Nov-11 04:00N 39°33' E 002°38'0 0.0
2017-Nov-11 03:30N 39°33' E 002°38'0 0.0
2017-Nov-11 03:00N 39°33' E 002°38'0 0.0
2017-Nov-11 02:30N 39°33' E 002°38'0 0.0
2017-Nov-11 02:00N 39°33' E 002°38'0 0.0
2017-Nov-11 01:30N 39°33' E 002°38'1 1.1
2017-Nov-11 01:00N 39°33' E 002°38'0 0.0
2017-Nov-11 00:30N 39°33' E 002°38'0 0.0
2017-Nov-11 00:00N 39°33' E 002°38'0 0.0
2017-Nov-10 23:30N 39°33' E 002°38'0 0.0
2017-Nov-10 23:00N 39°33' E 002°38'0 0.0
2017-Nov-10 22:30N 39°33' E 002°38'0 0.0
2017-Nov-10 22:00N 39°33' E 002°38'0 0.2
2017-Nov-10 21:30N 39°33' E 002°38'0 0.0
2017-Nov-10 21:00N 39°33' E 002°38'0 0.0
2017-Nov-10 20:30N 39°33' E 002°38'0 0.0
2017-Nov-10 20:00N 39°33' E 002°38'0 0.0
2017-Nov-10 19:30N 39°33' E 002°38'0 0.0
2017-Nov-10 19:00N 39°33' E 002°38'0 0.0
2017-Nov-10 18:30N 39°33' E 002°38'0 0.0
2017-Nov-10 18:00N 39°33' E 002°38'0 0.3
2017-Nov-10 17:30N 39°33' E 002°38'1 1.1
2017-Nov-10 17:00N 39°33' E 002°38'0 1.0
2017-Nov-10 16:30N 39°33' E 002°38'0 0.0
2017-Nov-10 16:00N 39°33' E 002°38'0 0.0
2017-Nov-10 15:30N 39°33' E 002°38'0 1.0
2017-Nov-10 15:00N 39°33' E 002°38'0 0.0
2017-Nov-10 14:30N 39°33' E 002°38'0 0.6
2017-Nov-10 14:00N 39°33' E 002°38'0 0.5
2017-Nov-10 13:30N 39°33' E 002°38'0 0.0
2017-Nov-10 13:00N 39°33' E 002°38'0 0.0
2017-Nov-10 12:30N 39°33' E 002°38'0 0.0
2017-Nov-10 12:00N 39°33' E 002°38'0 0.0
2017-Nov-10 11:30N 39°33' E 002°38'0 0.1
2017-Nov-10 11:00N 39°33' E 002°38'1 1.0
2017-Nov-10 10:30N 39°33' E 002°38'0 0.0
2017-Nov-10 10:00N 39°33' E 002°38'1 1.1
2017-Nov-10 09:30N 39°33' E 002°38'0 0.1
2017-Nov-10 09:00N 39°33' E 002°38'0 0.0
2017-Nov-10 08:30N 39°33' E 002°38'0 0.0
2017-Nov-10 08:00N 39°33' E 002°38'0 0.0
2017-Nov-10 07:30N 39°33' E 002°38'0 1.0
2017-Nov-10 07:00N 39°33' E 002°38'0 0.0
2017-Nov-10 06:30N 39°33' E 002°38'0 0.0
2017-Nov-10 06:00N 39°33' E 002°38'0 0.0
2017-Nov-10 05:30N 39°33' E 002°38'0 0.0
2017-Nov-10 05:00N 39°33' E 002°38'0 0.0
2017-Nov-10 04:30N 39°33' E 002°38'0 0.0
2017-Nov-10 04:00N 39°33' E 002°38'0 0.0
2017-Nov-10 03:30N 39°33' E 002°38'0 0.0
2017-Nov-10 03:00N 39°33' E 002°38'0 0.0
2017-Nov-10 02:30N 39°33' E 002°38'0 0.0
2017-Nov-10 02:00N 39°33' E 002°38'0 0.0
2017-Nov-10 01:30N 39°33' E 002°38'0 0.0
2017-Nov-10 01:00N 39°33' E 002°38'0 0.0
2017-Nov-10 00:30N 39°33' E 002°38'  
Track history (hours):
 
Tides and Currents Weather Stations Pressure Air Temp Water Temp Dewpoint Dewpoint Depression Visibility Wind Speed Wind Dir Waves Ship Positions

Omvac Ocho

Last reported at 2017-Nov-20 00:09 UTC. Time now 2017-Nov-23 18:17 UTC.
Position N 39°27' W 009°44'.

Length 52 m; draft 2.5 m.

Type: Dredging. MMSI: 225386000.

Date/timePositionNaut miles runAvg speedWind from/ knotsBaromVisibWave heightAir tempDewpointWater temp
2017-Nov-20 00:09N 39°27' W 009°44'1 8.0
2017-Nov-20 00:00N 39°25' W 009°44'6 7.9
2017-Nov-19 23:10N 39°19' W 009°44'1 7.8
2017-Nov-19 22:59N 39°18' W 009°45'4 7.6
2017-Nov-19 22:30N 39°14' W 009°46'4 7.7
2017-Nov-19 22:00N 39°10' W 009°47'4 7.7
2017-Nov-19 21:30N 39°06' W 009°48'4 7.6
2017-Nov-19 21:00N 39°03' W 009°48'4 7.7
2017-Nov-19 20:30N 38°59' W 009°49'4 7.5
2017-Nov-19 20:00N 38°55' W 009°49'4 7.3
2017-Nov-19 19:30N 38°51' W 009°50'4 7.3
2017-Nov-19 19:00N 38°48' W 009°50'4 7.1
2017-Nov-19 18:30N 38°44' W 009°50'4 7.7
2017-Nov-19 18:00N 38°40' W 009°49'4 7.7
2017-Nov-19 17:30N 38°37' W 009°48'4 7.4
2017-Nov-19 17:00N 38°33' W 009°47'4 7.6
2017-Nov-19 16:30N 38°29' W 009°47'4 7.5
2017-Nov-19 16:00N 38°26' W 009°46'4 7.6
2017-Nov-19 15:30N 38°22' W 009°45'4 7.2
2017-Nov-19 14:59N 38°18' W 009°44'4 7.5
2017-Nov-19 14:29N 38°15' W 009°42'4 7.9
2017-Nov-19 14:00N 38°11' W 009°41'4 7.9
2017-Nov-19 13:30N 38°07' W 009°40'4 7.8
2017-Nov-19 13:00N 38°03' W 009°38'4 7.7
2017-Nov-19 12:30N 37°60' W 009°37'4 7.9
2017-Nov-19 12:00N 37°56' W 009°36'4 8.1
2017-Nov-19 11:30N 37°52' W 009°35'4 8.1
2017-Nov-19 11:00N 37°48' W 009°33'4 7.8
2017-Nov-19 10:30N 37°44' W 009°32'4 7.9
2017-Nov-19 10:00N 37°40' W 009°31'4 7.6
2017-Nov-19 09:30N 37°37' W 009°30'4 7.7
2017-Nov-19 08:58N 37°33' W 009°29'4 7.9
2017-Nov-19 08:30N 37°29' W 009°28'4 7.8
2017-Nov-19 07:58N 37°25' W 009°27'4 7.9
2017-Nov-19 07:30N 37°21' W 009°26'4 7.6
2017-Nov-19 07:00N 37°18' W 009°25'4 7.5
2017-Nov-19 06:30N 37°14' W 009°24'4 7.6
2017-Nov-19 06:00N 37°10' W 009°23'4 7.5
2017-Nov-19 05:30N 37°07' W 009°22'4 7.8
2017-Nov-19 05:00N 37°03' W 009°21'4 7.8
2017-Nov-19 04:26N 36°58' W 009°19'3 8.0
2017-Nov-19 04:00N 36°55' W 009°18'9 7.9
2017-Nov-19 02:48N 36°48' W 009°11'3 8.2
2017-Nov-19 02:23N 36°46' W 009°08'3 8.2
2017-Nov-19 02:00N 36°45' W 009°04'10 8.2
2017-Nov-19 00:48N 36°42' W 008°52'5 8.1
2017-Nov-19 00:11N 36°40' W 008°46'10 7.8
2017-Nov-18 22:56N 36°37' W 008°35'33 8.0
2017-Nov-18 18:46N 36°27' W 007°55'3 7.7
2017-Nov-18 18:24N 36°26' W 007°52'119 7.2
2017-Nov-18 01:45N 36°00' W 005°27'2 6.5
2017-Nov-18 01:25N 36°01' W 005°25'3 6.6
2017-Nov-18 01:00N 36°01' W 005°21'3 6.8
2017-Nov-18 00:30N 36°02' W 005°17'232 7.5
2017-Nov-16 17:28N 37°19' W 000°44'190 7.4
2017-Nov-15 15:51N 39°18' E 002°25'3 8.0
2017-Nov-15 15:30N 39°20' E 002°28'4 7.8
2017-Nov-15 14:59N 39°23' E 002°31'4 7.5
2017-Nov-15 14:30N 39°26' E 002°34'4 7.4
2017-Nov-15 14:00N 39°29' E 002°37'4 7.5
2017-Nov-15 13:30N 39°32' E 002°39'1 2.3
2017-Nov-15 13:00N 39°33' E 002°38'0 0.0
2017-Nov-15 12:30N 39°33' E 002°38'0 0.0
2017-Nov-15 12:00N 39°33' E 002°38'0 0.0
2017-Nov-15 11:30N 39°33' E 002°38'0 0.0
2017-Nov-15 11:00N 39°33' E 002°38'0 0.0
2017-Nov-15 10:30N 39°33' E 002°38'0 0.0
2017-Nov-15 10:00N 39°33' E 002°38'0 0.0
2017-Nov-15 09:30N 39°33' E 002°38'0 0.0
2017-Nov-15 09:00N 39°33' E 002°38'0 0.0
2017-Nov-15 08:30N 39°33' E 002°38'0 0.0
2017-Nov-15 08:00N 39°33' E 002°38'0 0.0
2017-Nov-15 07:30N 39°33' E 002°38'0 0.0
2017-Nov-15 07:00N 39°33' E 002°38'0 0.0
2017-Nov-15 06:30N 39°33' E 002°38'0 0.0
2017-Nov-15 06:00N 39°33' E 002°38'0 0.0
2017-Nov-15 05:30N 39°33' E 002°38'0 0.0
2017-Nov-15 05:00N 39°33' E 002°38'0 0.0
2017-Nov-15 04:30N 39°33' E 002°38'0 0.0
2017-Nov-15 04:00N 39°33' E 002°38'0 0.0
2017-Nov-15 03:30N 39°33' E 002°38'0 0.0
2017-Nov-15 03:00N 39°33' E 002°38'0 0.0
2017-Nov-15 02:30N 39°33' E 002°38'0 0.0
2017-Nov-15 02:00N 39°33' E 002°38'0 0.0
2017-Nov-15 01:30N 39°33' E 002°38'0 0.0
2017-Nov-15 01:00N 39°33' E 002°38'0 0.0
2017-Nov-15 00:30N 39°33' E 002°38'0 0.0
2017-Nov-15 00:00N 39°33' E 002°38'0 0.0
2017-Nov-14 23:30N 39°33' E 002°38'0 0.0
2017-Nov-14 23:00N 39°33' E 002°38'0 0.0
2017-Nov-14 22:30N 39°33' E 002°38'0 0.0
2017-Nov-14 22:00N 39°33' E 002°38'0 0.0
2017-Nov-14 21:30N 39°33' E 002°38'0 0.0
2017-Nov-14 21:00N 39°33' E 002°38'0 0.0
2017-Nov-14 20:30N 39°33' E 002°38'0 0.0
2017-Nov-14 20:00N 39°33' E 002°38'0 0.0
2017-Nov-14 19:30N 39°33' E 002°38'0 0.0
2017-Nov-14 19:00N 39°33' E 002°38'0 0.0
2017-Nov-14 18:30N 39°33' E 002°38'0 0.0
2017-Nov-14 18:00N 39°33' E 002°38'0 0.0
2017-Nov-14 17:30N 39°33' E 002°38'0 0.0
2017-Nov-14 17:00N 39°33' E 002°38'0 0.0
2017-Nov-14 16:30N 39°33' E 002°38'0 0.0
2017-Nov-14 16:00N 39°33' E 002°38'0 0.0
2017-Nov-14 15:30N 39°33' E 002°38'0 0.0
2017-Nov-14 15:00N 39°33' E 002°38'0 0.0
2017-Nov-14 14:30N 39°33' E 002°38'0 0.0
2017-Nov-14 14:00N 39°33' E 002°38'0 0.0
2017-Nov-14 13:30N 39°33' E 002°38'0 0.0
2017-Nov-14 13:00N 39°33' E 002°38'0 0.0
2017-Nov-14 12:30N 39°33' E 002°38'0 0.0
2017-Nov-14 12:00N 39°33' E 002°38'0 0.0
2017-Nov-14 11:30N 39°33' E 002°38'0 0.0
2017-Nov-14 11:00N 39°33' E 002°38'0 0.0
2017-Nov-14 10:30N 39°33' E 002°38'0 0.0
2017-Nov-14 10:00N 39°33' E 002°38'0 0.0
2017-Nov-14 09:30N 39°33' E 002°38'0 0.0
2017-Nov-14 09:00N 39°33' E 002°38'0 0.0
2017-Nov-14 08:30N 39°33' E 002°38'0 0.0
2017-Nov-14 08:00N 39°33' E 002°38'0 0.0
2017-Nov-14 07:30N 39°33' E 002°38'0 0.0
2017-Nov-14 07:00N 39°33' E 002°38'0 0.0
2017-Nov-14 06:30N 39°33' E 002°38'0 0.0
2017-Nov-14 06:00N 39°33' E 002°38'0 0.0
2017-Nov-14 05:30N 39°33' E 002°38'0 0.0
2017-Nov-14 05:00N 39°33' E 002°38'0 0.0
2017-Nov-14 04:30N 39°33' E 002°38'0 0.0
2017-Nov-14 04:00N 39°33' E 002°38'0 0.0
2017-Nov-14 03:30N 39°33' E 002°38'0 0.0
2017-Nov-14 03:00N 39°33' E 002°38'0 0.0
2017-Nov-14 02:30N 39°33' E 002°38'0 0.0
2017-Nov-14 02:00N 39°33' E 002°38'0 0.0
2017-Nov-14 01:30N 39°33' E 002°38'0 0.0
2017-Nov-14 01:00N 39°33' E 002°38'0 0.0
2017-Nov-14 00:30N 39°33' E 002°38'0 0.0
2017-Nov-14 00:00N 39°33' E 002°38'0 0.0
2017-Nov-13 23:30N 39°33' E 002°38'0 0.0
2017-Nov-13 23:00N 39°33' E 002°38'0 0.0
2017-Nov-13 22:30N 39°33' E 002°38'0 0.0
2017-Nov-13 22:00N 39°33' E 002°38'0 0.0
2017-Nov-13 02:00N 39°33' E 002°38'0 0.0
2017-Nov-13 01:30N 39°33' E 002°38'0 0.0
2017-Nov-13 01:00N 39°33' E 002°38'0 0.0
2017-Nov-13 00:30N 39°33' E 002°38'0 0.0
2017-Nov-13 00:00N 39°33' E 002°38'0 0.0
2017-Nov-12 23:23N 39°33' E 002°38'0 0.0
2017-Nov-12 23:00N 39°33' E 002°38'0 0.0
2017-Nov-12 22:30N 39°33' E 002°38'0 0.0
2017-Nov-12 22:00N 39°33' E 002°38'0 0.0
2017-Nov-12 21:30N 39°33' E 002°38'0 0.0
2017-Nov-12 21:00N 39°33' E 002°38'0 0.0
2017-Nov-12 20:30N 39°33' E 002°38'0 0.0
2017-Nov-12 20:00N 39°33' E 002°38'0 0.0
2017-Nov-12 19:30N 39°33' E 002°38'0 0.0
2017-Nov-12 19:00N 39°33' E 002°38'0 0.0
2017-Nov-12 18:30N 39°33' E 002°38'0 0.0
2017-Nov-12 18:00N 39°33' E 002°38'0 0.0
2017-Nov-12 17:30N 39°33' E 002°38'0 0.0
2017-Nov-12 17:00N 39°33' E 002°38'0 0.0
2017-Nov-12 16:30N 39°33' E 002°38'0 0.0
2017-Nov-12 16:00N 39°33' E 002°38'0 0.0
2017-Nov-12 15:30N 39°33' E 002°38'0 0.0
2017-Nov-12 15:00N 39°33' E 002°38'0 0.0
2017-Nov-12 14:30N 39°33' E 002°38'0 0.0
2017-Nov-12 14:00N 39°33' E 002°38'0 0.0
2017-Nov-12 13:30N 39°33' E 002°38'0 0.0
2017-Nov-12 13:00N 39°33' E 002°38'0 0.0
2017-Nov-12 12:30N 39°33' E 002°38'0 0.1
2017-Nov-12 12:00N 39°33' E 002°38'0 0.3
2017-Nov-12 11:30N 39°33' E 002°38'0 0.2
2017-Nov-12 11:00N 39°33' E 002°38'0 0.3
2017-Nov-12 10:30N 39°33' E 002°38'0 0.0
2017-Nov-12 10:00N 39°33' E 002°38'0 0.0
2017-Nov-12 09:30N 39°33' E 002°38'0 0.0
2017-Nov-12 09:00N 39°33' E 002°38'0 0.0
2017-Nov-12 08:30N 39°33' E 002°38'0 0.0
2017-Nov-12 08:00N 39°33' E 002°38'0 0.0
2017-Nov-12 07:30N 39°33' E 002°38'0 0.0
2017-Nov-12 07:00N 39°33' E 002°38'0 0.0
2017-Nov-12 06:30N 39°33' E 002°38'0 0.0
2017-Nov-12 06:00N 39°33' E 002°38'0 0.0
2017-Nov-12 05:30N 39°33' E 002°38'0 0.0
2017-Nov-12 05:00N 39°33' E 002°38'0 0.0
2017-Nov-12 04:30N 39°33' E 002°38'0 0.0
2017-Nov-12 04:00N 39°33' E 002°38'0 0.0
2017-Nov-12 03:30N 39°33' E 002°38'0 0.0
2017-Nov-12 03:00N 39°33' E 002°38'0 0.0
2017-Nov-12 02:30N 39°33' E 002°38'0 0.0
2017-Nov-12 02:00N 39°33' E 002°38'0 0.0
2017-Nov-12 01:30N 39°33' E 002°38'0 0.0
2017-Nov-12 01:00N 39°33' E 002°38'0 0.0
2017-Nov-12 00:30N 39°33' E 002°38'0 0.0
2017-Nov-12 00:00N 39°33' E 002°38'0 0.0
2017-Nov-11 23:30N 39°33' E 002°38'0 0.0
2017-Nov-11 23:00N 39°33' E 002°38'0 0.0
2017-Nov-11 22:30N 39°33' E 002°38'0 0.0
2017-Nov-11 22:00N 39°33' E 002°38'0 0.0
2017-Nov-11 21:30N 39°33' E 002°38'0 0.0
2017-Nov-11 21:00N 39°33' E 002°38'0 0.0
2017-Nov-11 20:30N 39°33' E 002°38'0 0.0
2017-Nov-11 20:00N 39°33' E 002°38'0 0.0
2017-Nov-11 19:30N 39°33' E 002°38'0 0.0
2017-Nov-11 19:00N 39°33' E 002°38'0 0.0
2017-Nov-11 18:30N 39°33' E 002°38'0 0.0
2017-Nov-11 18:00N 39°33' E 002°38'0 0.1
2017-Nov-11 17:30N 39°33' E 002°38'0 0.0
2017-Nov-11 17:00N 39°33' E 002°38'0 0.0
2017-Nov-11 16:30N 39°33' E 002°38'0 0.0
2017-Nov-11 16:00N 39°33' E 002°38'0 0.1
2017-Nov-11 15:30N 39°33' E 002°38'1 1.2
2017-Nov-11 15:00N 39°33' E 002°38'0 0.0
2017-Nov-11 14:30N 39°33' E 002°38'0 0.9
2017-Nov-11 14:00N 39°33' E 002°38'0 0.0
2017-Nov-11 13:30N 39°33' E 002°38'0 0.9
2017-Nov-11 13:00N 39°33' E 002°38'0 0.0
2017-Nov-11 12:30N 39°33' E 002°38'1 1.4
2017-Nov-11 12:00N 39°33' E 002°38'1 1.4
2017-Nov-11 11:30N 39°33' E 002°38'0 0.0
2017-Nov-11 11:00N 39°33' E 002°38'0 0.0
2017-Nov-11 10:30N 39°33' E 002°38'0 0.9
2017-Nov-11 10:00N 39°33' E 002°38'0 0.6
2017-Nov-11 09:30N 39°33' E 002°38'0 0.3
2017-Nov-11 09:00N 39°33' E 002°38'0 0.0
2017-Nov-11 08:30N 39°33' E 002°38'0 0.9
2017-Nov-11 08:00N 39°33' E 002°38'0 0.9
2017-Nov-11 07:30N 39°33' E 002°38'0 0.0
2017-Nov-11 07:00N 39°33' E 002°38'0 0.0
2017-Nov-11 06:30N 39°33' E 002°38'0 0.0
2017-Nov-11 06:00N 39°33' E 002°38'0 0.0
2017-Nov-11 05:30N 39°33' E 002°38'0 0.0
2017-Nov-11 05:00N 39°33' E 002°38'0 0.0
2017-Nov-11 04:30N 39°33' E 002°38'0 0.0
2017-Nov-11 04:00N 39°33' E 002°38'0 0.0
2017-Nov-11 03:30N 39°33' E 002°38'0 0.0
2017-Nov-11 03:00N 39°33' E 002°38'0 0.0
2017-Nov-11 02:30N 39°33' E 002°38'0 0.0
2017-Nov-11 02:00N 39°33' E 002°38'0 0.0
2017-Nov-11 01:30N 39°33' E 002°38'1 1.1
2017-Nov-11 01:00N 39°33' E 002°38'0 0.0
2017-Nov-11 00:30N 39°33' E 002°38'0 0.0
2017-Nov-11 00:00N 39°33' E 002°38'0 0.0
2017-Nov-10 23:30N 39°33' E 002°38'0 0.0
2017-Nov-10 23:00N 39°33' E 002°38'0 0.0
2017-Nov-10 22:30N 39°33' E 002°38'0 0.0
2017-Nov-10 22:00N 39°33' E 002°38'0 0.2
2017-Nov-10 21:30N 39°33' E 002°38'0 0.0
2017-Nov-10 21:00N 39°33' E 002°38'0 0.0
2017-Nov-10 20:30N 39°33' E 002°38'0 0.0
2017-Nov-10 20:00N 39°33' E 002°38'0 0.0
2017-Nov-10 19:30N 39°33' E 002°38'0 0.0
2017-Nov-10 19:00N 39°33' E 002°38'0 0.0
2017-Nov-10 18:30N 39°33' E 002°38'0 0.0
2017-Nov-10 18:00N 39°33' E 002°38'0 0.3
2017-Nov-10 17:30N 39°33' E 002°38'1 1.1
2017-Nov-10 17:00N 39°33' E 002°38'0 1.0
2017-Nov-10 16:30N 39°33' E 002°38'0 0.0
2017-Nov-10 16:00N 39°33' E 002°38'0 0.0
2017-Nov-10 15:30N 39°33' E 002°38'0 1.0
2017-Nov-10 15:00N 39°33' E 002°38'0 0.0
2017-Nov-10 14:30N 39°33' E 002°38'0 0.6
2017-Nov-10 14:00N 39°33' E 002°38'0 0.5
2017-Nov-10 13:30N 39°33' E 002°38'0 0.0
2017-Nov-10 13:00N 39°33' E 002°38'0 0.0
2017-Nov-10 12:30N 39°33' E 002°38'0 0.0
2017-Nov-10 12:00N 39°33' E 002°38'0 0.0
2017-Nov-10 11:30N 39°33' E 002°38'0 0.1
2017-Nov-10 11:00N 39°33' E 002°38'1 1.0
2017-Nov-10 10:30N 39°33' E 002°38'0 0.0
2017-Nov-10 10:00N 39°33' E 002°38'1 1.1
2017-Nov-10 09:30N 39°33' E 002°38'0 0.1
2017-Nov-10 09:00N 39°33' E 002°38'0 0.0
2017-Nov-10 08:30N 39°33' E 002°38'0 0.0
2017-Nov-10 08:00N 39°33' E 002°38'0 0.0
2017-Nov-10 07:30N 39°33' E 002°38'0 1.0
2017-Nov-10 07:00N 39°33' E 002°38'0 0.0
2017-Nov-10 06:30N 39°33' E 002°38'0 0.0
2017-Nov-10 06:00N 39°33' E 002°38'0 0.0
2017-Nov-10 05:30N 39°33' E 002°38'0 0.0
2017-Nov-10 05:00N 39°33' E 002°38'0 0.0
2017-Nov-10 04:30N 39°33' E 002°38'0 0.0
2017-Nov-10 04:00N 39°33' E 002°38'0 0.0
2017-Nov-10 03:30N 39°33' E 002°38'0 0.0
2017-Nov-10 03:00N 39°33' E 002°38'0 0.0
2017-Nov-10 02:30N 39°33' E 002°38'0 0.0
2017-Nov-10 02:00N 39°33' E 002°38'0 0.0
2017-Nov-10 01:30N 39°33' E 002°38'0 0.0
2017-Nov-10 01:00N 39°33' E 002°38'0 0.0
2017-Nov-10 00:30N 39°33' E 002°38'  

Dump ship's entire track history